sensor_id;sensor_type;location;lat;lon;timestamp;pressure;altitude;pressure_sealevel;temperature;humidity
20656;BME280;10487;53.320;8.672;2023-04-03T00:02:03;103053.78;;;-0.99;55.81
20656;BME280;10487;53.320;8.672;2023-04-03T00:05:06;103046.75;;;-1.00;55.71
20656;BME280;10487;53.320;8.672;2023-04-03T00:08:08;103052.88;;;-1.01;55.75
20656;BME280;10487;53.320;8.672;2023-04-03T00:11:10;103048.53;;;-0.99;55.96
20656;BME280;10487;53.320;8.672;2023-04-03T00:14:12;103045.09;;;-0.94;55.90
20656;BME280;10487;53.320;8.672;2023-04-03T00:17:14;103040.75;;;-0.92;55.84
20656;BME280;10487;53.320;8.672;2023-04-03T00:20:15;103058.22;;;-0.92;55.63
20656;BME280;10487;53.320;8.672;2023-04-03T00:23:17;103063.41;;;-0.98;55.67
20656;BME280;10487;53.320;8.672;2023-04-03T00:26:19;103067.69;;;-1.05;55.52
20656;BME280;10487;53.320;8.672;2023-04-03T00:29:22;103070.25;;;-1.10;55.91
20656;BME280;10487;53.320;8.672;2023-04-03T00:32:23;103073.72;;;-1.12;55.69
20656;BME280;10487;53.320;8.672;2023-04-03T00:35:25;103074.56;;;-1.15;55.86
20656;BME280;10487;53.320;8.672;2023-04-03T00:38:27;103073.63;;;-1.20;56.01
20656;BME280;10487;53.320;8.672;2023-04-03T00:41:28;103082.34;;;-1.24;55.83
20656;BME280;10487;53.320;8.672;2023-04-03T00:47:34;103070.00;;;-1.32;55.88
20656;BME280;10487;53.320;8.672;2023-04-03T00:50:39;103074.38;;;-1.31;55.79
20656;BME280;10487;53.320;8.672;2023-04-03T00:53:55;103075.31;;;-1.26;55.83
20656;BME280;10487;53.320;8.672;2023-04-03T00:56:59;103078.84;;;-1.23;55.75
20656;BME280;10487;53.320;8.672;2023-04-03T01:00:07;103074.47;;;-1.22;56.06
20656;BME280;10487;53.320;8.672;2023-04-03T01:03:10;103077.06;;;-1.25;55.92
20656;BME280;10487;53.320;8.672;2023-04-03T01:06:14;103077.94;;;-1.26;56.24
20656;BME280;10487;53.320;8.672;2023-04-03T01:09:17;103077.91;;;-1.28;55.76
20656;BME280;10487;53.320;8.672;2023-04-03T01:12:33;103083.97;;;-1.30;55.76
20656;BME280;10487;53.320;8.672;2023-04-03T01:15:35;103079.56;;;-1.36;55.92
20656;BME280;10487;53.320;8.672;2023-04-03T01:18:38;103083.00;;;-1.40;55.80
20656;BME280;10487;53.320;8.672;2023-04-03T01:22:11;103073.34;;;-1.44;56.04
20656;BME280;10487;53.320;8.672;2023-04-03T01:25:18;103085.50;;;-1.47;55.77
20656;BME280;10487;53.320;8.672;2023-04-03T01:28:39;103088.13;;;-1.49;56.09
20656;BME280;10487;53.320;8.672;2023-04-03T01:34:53;103088.84;;;-1.60;56.15
20656;BME280;10487;53.320;8.672;2023-04-03T01:37:54;103089.66;;;-1.66;56.19
20656;BME280;10487;53.320;8.672;2023-04-03T01:40:56;103088.69;;;-1.71;56.07
20656;BME280;10487;53.320;8.672;2023-04-03T01:43:58;103087.75;;;-1.75;55.91
20656;BME280;10487;53.320;8.672;2023-04-03T01:46:59;103092.97;;;-1.78;56.06
20656;BME280;10487;53.320;8.672;2023-04-03T01:50:01;103089.44;;;-1.81;56.04
20656;BME280;10487;53.320;8.672;2023-04-03T01:53:02;103097.22;;;-1.86;56.20
20656;BME280;10487;53.320;8.672;2023-04-03T01:56:04;103100.69;;;-1.87;55.82
20656;BME280;10487;53.320;8.672;2023-04-03T01:59:06;103100.63;;;-1.91;56.37
20656;BME280;10487;53.320;8.672;2023-04-03T02:02:08;103098.84;;;-1.94;56.33
20656;BME280;10487;53.320;8.672;2023-04-03T02:05:09;103107.53;;;-1.95;56.30
20656;BME280;10487;53.320;8.672;2023-04-03T02:08:11;103112.75;;;-1.98;56.37
20656;BME280;10487;53.320;8.672;2023-04-03T02:11:14;103102.19;;;-2.02;56.54
20656;BME280;10487;53.320;8.672;2023-04-03T02:14:16;103098.66;;;-2.06;56.15
20656;BME280;10487;53.320;8.672;2023-04-03T02:17:18;103104.72;;;-2.10;56.45
20656;BME280;10487;53.320;8.672;2023-04-03T02:20:19;103104.59;;;-2.14;56.43
20656;BME280;10487;53.320;8.672;2023-04-03T02:23:21;103104.59;;;-2.17;56.12
20656;BME280;10487;53.320;8.672;2023-04-03T02:26:23;103108.88;;;-2.19;56.01
20656;BME280;10487;53.320;8.672;2023-04-03T02:29:25;103105.34;;;-2.23;56.21
20656;BME280;10487;53.320;8.672;2023-04-03T02:32:26;103110.53;;;-2.24;56.27
20656;BME280;10487;53.320;8.672;2023-04-03T02:35:29;103111.41;;;-2.25;56.47
20656;BME280;10487;53.320;8.672;2023-04-03T02:38:31;103113.16;;;-2.26;56.43
20656;BME280;10487;53.320;8.672;2023-04-03T02:41:33;103110.53;;;-2.24;56.55
20656;BME280;10487;53.320;8.672;2023-04-03T02:44:37;103111.41;;;-2.25;56.28
20656;BME280;10487;53.320;8.672;2023-04-03T02:47:40;103118.38;;;-2.24;56.11
20656;BME280;10487;53.320;8.672;2023-04-03T02:50:42;103117.53;;;-2.25;56.18
20656;BME280;10487;53.320;8.672;2023-04-03T02:53:43;103118.38;;;-2.27;56.16
20656;BME280;10487;53.320;8.672;2023-04-03T02:56:45;103117.47;;;-2.28;56.78
20656;BME280;10487;53.320;8.672;2023-04-03T02:59:46;103121.81;;;-2.30;56.26
20656;BME280;10487;53.320;8.672;2023-04-03T03:02:48;103121.75;;;-2.31;56.30
20656;BME280;10487;53.320;8.672;2023-04-03T03:06:01;103114.75;;;-2.34;56.37
20656;BME280;10487;53.320;8.672;2023-04-03T03:09:03;103119.97;;;-2.34;56.39
20656;BME280;10487;53.320;8.672;2023-04-03T03:12:05;103118.19;;;-2.37;56.36
20656;BME280;10487;53.320;8.672;2023-04-03T03:15:07;103118.19;;;-2.37;56.82
20656;BME280;10487;53.320;8.672;2023-04-03T03:18:09;103116.47;;;-2.34;56.23
20656;BME280;10487;53.320;8.672;2023-04-03T03:21:11;103122.63;;;-2.32;56.58
20656;BME280;10487;53.320;8.672;2023-04-03T03:24:12;103124.38;;;-2.31;56.76
20656;BME280;10487;53.320;8.672;2023-04-03T03:27:14;103120.94;;;-2.30;56.62
20656;BME280;10487;53.320;8.672;2023-04-03T03:30:17;103118.25;;;-2.32;56.21
20656;BME280;10487;53.320;8.672;2023-04-03T03:33:19;103119.19;;;-2.30;56.83
20656;BME280;10487;53.320;8.672;2023-04-03T03:36:20;103125.28;;;-2.29;56.09
20656;BME280;10487;53.320;8.672;2023-04-03T03:39:22;103120.94;;;-2.29;56.63
20656;BME280;10487;53.320;8.672;2023-04-03T03:42:23;103122.72;;;-2.26;56.26
20656;BME280;10487;53.320;8.672;2023-04-03T03:45:25;103123.63;;;-2.24;56.53
20656;BME280;10487;53.320;8.672;2023-04-03T03:48:26;103127.13;;;-2.24;56.68
20656;BME280;10487;53.320;8.672;2023-04-03T03:51:28;103121.88;;;-2.25;56.39
20656;BME280;10487;53.320;8.672;2023-04-03T03:54:30;103127.13;;;-2.25;56.52
20656;BME280;10487;53.320;8.672;2023-04-03T03:57:31;103129.72;;;-2.25;56.03
20656;BME280;10487;53.320;8.672;2023-04-03T04:00:33;103131.47;;;-2.26;56.20
20656;BME280;10487;53.320;8.672;2023-04-03T04:03:34;103129.66;;;-2.28;56.47
20656;BME280;10487;53.320;8.672;2023-04-03T04:06:36;103132.28;;;-2.30;56.66
20656;BME280;10487;53.320;8.672;2023-04-03T04:09:38;103131.31;;;-2.35;56.58
20656;BME280;10487;53.320;8.672;2023-04-03T04:12:40;103132.13;;;-2.38;56.45
20656;BME280;10487;53.320;8.672;2023-04-03T04:15:42;103142.53;;;-2.42;56.71
20656;BME280;10487;53.320;8.672;2023-04-03T04:18:44;103145.97;;;-2.45;56.34
20656;BME280;10487;53.320;8.672;2023-04-03T04:21:46;103147.66;;;-2.47;56.75
20656;BME280;10487;53.320;8.672;2023-04-03T04:24:47;103152.84;;;-2.50;56.44
20656;BME280;10487;53.320;8.672;2023-04-03T04:27:49;103152.81;;;-2.51;56.23
20656;BME280;10487;53.320;8.672;2023-04-03T04:30:50;103153.66;;;-2.52;56.43
20656;BME280;10487;53.320;8.672;2023-04-03T04:33:52;103160.56;;;-2.56;56.70
20656;BME280;10487;53.320;8.672;2023-04-03T04:36:54;103167.50;;;-2.58;56.70
20656;BME280;10487;53.320;8.672;2023-04-03T04:39:56;103160.47;;;-2.60;56.78
20656;BME280;10487;53.320;8.672;2023-04-03T04:42:57;103163.13;;;-2.59;56.80
20656;BME280;10487;53.320;8.672;2023-04-03T04:46:04;103158.78;;;-2.57;57.00
20656;BME280;10487;53.320;8.672;2023-04-03T04:49:06;103164.88;;;-2.58;56.75
20656;BME280;10487;53.320;8.672;2023-04-03T04:52:08;103175.34;;;-2.58;56.70
20656;BME280;10487;53.320;8.672;2023-04-03T04:55:09;103169.22;;;-2.60;56.64
20656;BME280;10487;53.320;8.672;2023-04-03T04:58:11;103164.81;;;-2.61;56.90
20656;BME280;10487;53.320;8.672;2023-04-03T05:01:13;103163.84;;;-2.66;56.47
20656;BME280;10487;53.320;8.672;2023-04-03T05:04:14;103170.78;;;-2.68;56.74
20656;BME280;10487;53.320;8.672;2023-04-03T05:07:16;103169.91;;;-2.70;56.78
20656;BME280;10487;53.320;8.672;2023-04-03T05:10:18;103178.59;;;-2.69;56.91
20656;BME280;10487;53.320;8.672;2023-04-03T05:13:20;103176.03;;;-2.66;56.57
20656;BME280;10487;53.320;8.672;2023-04-03T05:16:22;103173.56;;;-2.60;57.19
20656;BME280;10487;53.320;8.672;2023-04-03T05:19:23;103170.97;;;-2.59;57.08
20656;BME280;10487;53.320;8.672;2023-04-03T05:22:25;103180.13;;;-2.35;57.79
20656;BME280;10487;53.320;8.672;2023-04-03T05:25:27;103178.00;;;-2.07;57.43
20656;BME280;10487;53.320;8.672;2023-04-03T05:28:28;103183.41;;;-1.98;56.65
20656;BME280;10487;53.320;8.672;2023-04-03T05:31:30;103187.81;;;-1.92;57.19
20656;BME280;10487;53.320;8.672;2023-04-03T05:34:32;103183.53;;;-1.89;56.88
20656;BME280;10487;53.320;8.672;2023-04-03T05:37:34;103196.75;;;-1.81;56.75
20656;BME280;10487;53.320;8.672;2023-04-03T05:40:37;103185.50;;;-1.74;56.68
20656;BME280;10487;53.320;8.672;2023-04-03T05:43:38;103187.38;;;-1.67;56.90
20656;BME280;10487;53.320;8.672;2023-04-03T05:46:40;103198.84;;;-1.60;56.89
20656;BME280;10487;53.320;8.672;2023-04-03T05:49:42;103192.84;;;-1.52;56.93
20656;BME280;10487;53.320;8.672;2023-04-03T05:52:48;103197.34;;;-1.42;56.90
20656;BME280;10487;53.320;8.672;2023-04-03T05:55:50;103202.75;;;-1.31;56.72
20656;BME280;10487;53.320;8.672;2023-04-03T05:58:51;103195.91;;;-1.20;56.50
20656;BME280;10487;53.320;8.672;2023-04-03T06:01:53;103202.19;;;-1.09;56.54
20656;BME280;10487;53.320;8.672;2023-04-03T06:04:55;103204.91;;;-1.01;56.93
20656;BME280;10487;53.320;8.672;2023-04-03T06:07:56;103211.16;;;-0.90;56.62
20656;BME280;10487;53.320;8.672;2023-04-03T06:10:59;103213.94;;;-0.77;56.70
20656;BME280;10487;53.320;8.672;2023-04-03T06:14:00;103214.97;;;-0.64;56.56
20656;BME280;10487;53.320;8.672;2023-04-03T06:17:03;103226.59;;;-0.43;56.75
20656;BME280;10487;53.320;8.672;2023-04-03T06:20:05;103227.59;;;-0.31;56.57
20656;BME280;10487;53.320;8.672;2023-04-03T06:23:07;103223.28;;;-0.25;56.54
20656;BME280;10487;53.320;8.672;2023-04-03T06:26:09;103226.91;;;-0.12;56.77
20656;BME280;10487;53.320;8.672;2023-04-03T06:29:10;103232.34;;;0.06;56.59
20656;BME280;10487;53.320;8.672;2023-04-03T06:32:12;103222.75;;;0.12;56.43
20656;BME280;10487;53.320;8.672;2023-04-03T06:35:14;103234.25;;;0.27;56.63
20656;BME280;10487;53.320;8.672;2023-04-03T06:38:15;103232.56;;;0.35;56.46
20656;BME280;10487;53.320;8.672;2023-04-03T06:41:17;103227.38;;;0.44;56.51
20656;BME280;10487;53.320;8.672;2023-04-03T06:44:19;103231.97;;;0.75;56.83
20656;BME280;10487;53.320;8.672;2023-04-03T06:47:20;103244.34;;;0.86;56.62
20656;BME280;10487;53.320;8.672;2023-04-03T06:50:22;103246.97;;;0.91;56.47
20656;BME280;10487;53.320;8.672;2023-04-03T06:53:23;103242.59;;;0.93;56.23
20656;BME280;10487;53.320;8.672;2023-04-03T06:56:26;103246.16;;;0.98;56.34
20656;BME280;10487;53.320;8.672;2023-04-03T06:59:28;103247.94;;;1.02;56.27
20656;BME280;10487;53.320;8.672;2023-04-03T07:02:29;103256.75;;;1.10;56.29
20656;BME280;10487;53.320;8.672;2023-04-03T07:05:31;103260.31;;;1.21;56.33
20656;BME280;10487;53.320;8.672;2023-04-03T07:08:34;103254.22;;;1.36;56.09
20656;BME280;10487;53.320;8.672;2023-04-03T07:11:36;103263.06;;;1.51;56.27
20656;BME280;10487;53.320;8.672;2023-04-03T07:14:37;103263.09;;;1.65;56.28
20656;BME280;10487;53.320;8.672;2023-04-03T07:17:39;103251.72;;;1.78;56.16
20656;BME280;10487;53.320;8.672;2023-04-03T07:20:41;103258.78;;;1.91;56.20
20656;BME280;10487;53.320;8.672;2023-04-03T07:23:43;103260.53;;;2.03;56.15
20656;BME280;10487;53.320;8.672;2023-04-03T07:26:44;103266.69;;;2.20;55.94
20656;BME280;10487;53.320;8.672;2023-04-03T07:29:46;103264.09;;;2.38;56.35
20656;BME280;10487;53.320;8.672;2023-04-03T07:32:49;103273.72;;;2.57;55.92
20656;BME280;10487;53.320;8.672;2023-04-03T07:35:51;103271.09;;;2.75;55.83
20656;BME280;10487;53.320;8.672;2023-04-03T07:38:53;103267.56;;;2.89;55.77
20656;BME280;10487;53.320;8.672;2023-04-03T07:41:55;103270.16;;;3.04;55.77
20656;BME280;10487;53.320;8.672;2023-04-03T07:44:57;103266.59;;;3.14;55.76
20656;BME280;10487;53.320;8.672;2023-04-03T07:47:59;103266.59;;;3.18;55.52
20656;BME280;10487;53.320;8.672;2023-04-03T07:51:02;103270.09;;;3.20;55.56
20656;BME280;10487;53.320;8.672;2023-04-03T07:54:05;103259.53;;;3.22;55.50
20656;BME280;10487;53.320;8.672;2023-04-03T07:57:07;103261.28;;;3.23;55.32
20656;BME280;10487;53.320;8.672;2023-04-03T08:00:09;103272.72;;;3.25;55.52
20656;BME280;10487;53.320;8.672;2023-04-03T08:03:11;103270.97;;;3.30;55.62
20656;BME280;10487;53.320;8.672;2023-04-03T08:06:14;103270.09;;;3.32;55.40
20656;BME280;10487;53.320;8.672;2023-04-03T08:09:19;103267.47;;;3.31;55.10
20656;BME280;10487;53.320;8.672;2023-04-03T08:12:20;103274.47;;;3.32;55.23
20656;BME280;10487;53.320;8.672;2023-04-03T08:15:22;103273.59;;;3.33;55.27
20656;BME280;10487;53.320;8.672;2023-04-03T08:18:24;103277.13;;;3.35;54.97
20656;BME280;10487;53.320;8.672;2023-04-03T08:21:27;103278.00;;;3.35;55.10
20656;BME280;10487;53.320;8.672;2023-04-03T08:24:29;103268.31;;;3.37;55.04
20656;BME280;10487;53.320;8.672;2023-04-03T08:27:30;103266.50;;;3.41;55.14
20656;BME280;10487;53.320;8.672;2023-04-03T08:30:35;103260.38;;;3.40;55.11
20656;BME280;10487;53.320;8.672;2023-04-03T08:33:38;103270.03;;;3.44;54.85
20656;BME280;10487;53.320;8.672;2023-04-03T08:36:40;103264.69;;;3.54;55.07
20656;BME280;10487;53.320;8.672;2023-04-03T08:39:42;103265.56;;;3.63;55.00
20656;BME280;10487;53.320;8.672;2023-04-03T08:45:57;103270.75;;;3.75;54.66
20656;BME280;10487;53.320;8.672;2023-04-03T08:49:02;103272.47;;;3.84;54.59
20656;BME280;10487;53.320;8.672;2023-04-03T08:52:09;103266.25;;;3.92;54.82
20656;BME280;10487;53.320;8.672;2023-04-03T08:55:43;103264.44;;;3.99;54.47
20656;BME280;10487;53.320;8.672;2023-04-03T08:58:50;103272.34;;;4.05;54.47
20656;BME280;10487;53.320;8.672;2023-04-03T09:01:54;103267.00;;;4.09;54.45
20656;BME280;10487;53.320;8.672;2023-04-03T09:04:57;103263.47;;;4.15;54.35
20656;BME280;10487;53.320;8.672;2023-04-03T09:08:00;103262.50;;;4.25;54.38
20656;BME280;10487;53.320;8.672;2023-04-03T09:11:26;103264.19;;;4.34;54.28
20656;BME280;10487;53.320;8.672;2023-04-03T09:17:59;103255.31;;;4.42;53.88
20656;BME280;10487;53.320;8.672;2023-04-03T09:24:09;103251.69;;;4.52;54.03
20656;BME280;10487;53.320;8.672;2023-04-03T09:27:12;103256.84;;;4.66;54.11
20656;BME280;10487;53.320;8.672;2023-04-03T09:30:19;103250.56;;;4.76;53.88
20656;BME280;10487;53.320;8.672;2023-04-03T09:33:22;103251.34;;;4.87;53.82
20656;BME280;10487;53.320;8.672;2023-04-03T09:36:40;103246.81;;;4.95;53.81
20656;BME280;10487;53.320;8.672;2023-04-03T09:39:53;103245.84;;;5.04;53.68
20656;BME280;10487;53.320;8.672;2023-04-03T09:42:58;103233.38;;;5.15;53.69
20656;BME280;10487;53.320;8.672;2023-04-03T09:46:31;103239.38;;;5.30;53.71
20656;BME280;10487;53.320;8.672;2023-04-03T09:49:34;103235.75;;;5.37;53.51
20656;BME280;10487;53.320;8.672;2023-04-03T09:52:35;103234.75;;;5.49;53.53
20656;BME280;10487;53.320;8.672;2023-04-03T09:55:43;103227.47;;;5.63;53.39
20656;BME280;10487;53.320;8.672;2023-04-03T09:59:06;103218.22;;;5.90;53.40
20656;BME280;10487;53.320;8.672;2023-04-03T10:05:39;103221.88;;;6.38;53.15
20656;BME280;10487;53.320;8.672;2023-04-03T10:08:41;103221.56;;;6.54;53.01
20656;BME280;10487;53.320;8.672;2023-04-03T10:15:00;103215.09;;;6.72;52.56
20656;BME280;10487;53.320;8.672;2023-04-03T10:18:06;103213.13;;;6.82;52.64
20656;BME280;10487;53.320;8.672;2023-04-03T10:28:00;103203.78;;;7.07;52.38
20656;BME280;10487;53.320;8.672;2023-04-03T10:34:45;103195.75;;;7.08;52.21
20656;BME280;10487;53.320;8.672;2023-04-03T10:46:02;103200.03;;;7.17;52.06
20656;BME280;10487;53.320;8.672;2023-04-03T10:49:25;103199.63;;;7.35;52.02
20656;BME280;10487;53.320;8.672;2023-04-03T10:52:40;103193.94;;;7.52;51.92
20656;BME280;10487;53.320;8.672;2023-04-03T11:08:44;103183.41;;;8.22;51.92
20656;BME280;10487;53.320;8.672;2023-04-03T11:11:48;103165.78;;;8.50;51.73
20656;BME280;10487;53.320;8.672;2023-04-03T11:14:51;103165.78;;;8.83;51.71
20656;BME280;10487;53.320;8.672;2023-04-03T11:17:59;103161.03;;;8.94;51.37
20656;BME280;10487;53.320;8.672;2023-04-03T11:24:20;103150.44;;;8.60;50.90
20656;BME280;10487;53.320;8.672;2023-04-03T11:27:23;103149.34;;;8.35;51.16
20656;BME280;10487;53.320;8.672;2023-04-03T11:36:51;103141.31;;;8.02;51.48
20656;BME280;10487;53.320;8.672;2023-04-03T11:39:58;103134.25;;;8.02;51.35
20656;BME280;10487;53.320;8.672;2023-04-03T11:43:16;103130.78;;;7.98;51.21
20656;BME280;10487;53.320;8.672;2023-04-03T11:46:22;103138.63;;;8.04;51.15
20656;BME280;10487;53.320;8.672;2023-04-03T11:52:59;103127.22;;;7.99;50.94
20656;BME280;10487;53.320;8.672;2023-04-03T11:56:26;103121.16;;;7.94;51.11
20656;BME280;10487;53.320;8.672;2023-04-03T11:59:25;103111.22;;;8.00;51.21
20656;BME280;10487;53.320;8.672;2023-04-03T12:02:37;103108.56;;;8.00;50.93
20656;BME280;10487;53.320;8.672;2023-04-03T12:09:27;103108.00;;;7.89;50.68
20656;BME280;10487;53.320;8.672;2023-04-03T12:15:48;103117.69;;;7.90;50.76
20656;BME280;10487;53.320;8.672;2023-04-03T12:28:55;103085.81;;;8.24;50.48
20656;BME280;10487;53.320;8.672;2023-04-03T12:39:05;103091.75;;;8.34;50.16
20656;BME280;10487;53.320;8.672;2023-04-03T12:42:21;103084.06;;;8.23;50.22
20656;BME280;10487;53.320;8.672;2023-04-03T12:45:26;103065.16;;;8.34;50.43
20656;BME280;10487;53.320;8.672;2023-04-03T12:48:30;103068.94;;;8.56;50.25
20656;BME280;10487;53.320;8.672;2023-04-03T12:51:39;103065.19;;;8.63;50.17
20656;BME280;10487;53.320;8.672;2023-04-03T12:54:41;103058.09;;;8.62;49.81
20656;BME280;10487;53.320;8.672;2023-04-03T12:57:43;103058.25;;;8.57;49.84
20656;BME280;10487;53.320;8.672;2023-04-03T13:00:44;103057.72;;;8.45;49.83
20656;BME280;10487;53.320;8.672;2023-04-03T13:03:55;103056.34;;;8.32;49.86
20656;BME280;10487;53.320;8.672;2023-04-03T13:06:57;103050.41;;;8.22;49.85
20656;BME280;10487;53.320;8.672;2023-04-03T13:10:14;103060.50;;;8.10;49.69
20656;BME280;10487;53.320;8.672;2023-04-03T13:13:17;103051.00;;;7.99;49.95
20656;BME280;10487;53.320;8.672;2023-04-03T13:16:18;103053.59;;;8.01;49.68
20656;BME280;10487;53.320;8.672;2023-04-03T13:19:23;103039.63;;;7.94;49.81
20656;BME280;10487;53.320;8.672;2023-04-03T13:25:35;103039.31;;;8.07;49.52
20656;BME280;10487;53.320;8.672;2023-04-03T13:28:39;103031.28;;;8.08;49.65
20656;BME280;10487;53.320;8.672;2023-04-03T13:31:42;103033.66;;;8.19;49.46
20656;BME280;10487;53.320;8.672;2023-04-03T13:34:43;103028.41;;;8.16;49.43
20656;BME280;10487;53.320;8.672;2023-04-03T13:37:55;103030.38;;;8.09;49.42
20656;BME280;10487;53.320;8.672;2023-04-03T13:41:01;103030.56;;;8.02;49.42
20656;BME280;10487;53.320;8.672;2023-04-03T13:44:28;103022.53;;;8.03;49.53
20656;BME280;10487;53.320;8.672;2023-04-03T13:47:39;103021.38;;;8.13;49.76
20656;BME280;10487;53.320;8.672;2023-04-03T13:51:12;103031.56;;;8.30;49.50
20656;BME280;10487;53.320;8.672;2023-04-03T13:54:39;103021.25;;;8.19;49.17
20656;BME280;10487;53.320;8.672;2023-04-03T13:58:00;103016.91;;;8.15;49.30
20656;BME280;10487;53.320;8.672;2023-04-03T14:01:15;103019.03;;;8.01;49.25
20656;BME280;10487;53.320;8.672;2023-04-03T14:04:24;103027.34;;;7.89;49.16
20656;BME280;10487;53.320;8.672;2023-04-03T14:07:26;103009.22;;;7.71;49.03
20656;BME280;10487;53.320;8.672;2023-04-03T14:10:28;103012.88;;;7.67;49.46
20656;BME280;10487;53.320;8.672;2023-04-03T14:13:30;103011.88;;;7.71;49.38
20656;BME280;10487;53.320;8.672;2023-04-03T14:16:36;103005.91;;;7.95;49.44
20656;BME280;10487;53.320;8.672;2023-04-03T14:19:39;103006.19;;;8.18;49.23
20656;BME280;10487;53.320;8.672;2023-04-03T14:22:40;103007.84;;;8.22;49.12
20656;BME280;10487;53.320;8.672;2023-04-03T14:25:42;103003.78;;;8.09;48.89
20656;BME280;10487;53.320;8.672;2023-04-03T14:28:47;102990.69;;;8.00;49.03
20656;BME280;10487;53.320;8.672;2023-04-03T14:31:50;102999.69;;;7.96;49.13
20656;BME280;10487;53.320;8.672;2023-04-03T14:35:04;103000.81;;;7.87;49.21
20656;BME280;10487;53.320;8.672;2023-04-03T14:38:22;103002.81;;;7.79;49.19
20656;BME280;10487;53.320;8.672;2023-04-03T14:41:25;103002.00;;;7.76;49.01
20656;BME280;10487;53.320;8.672;2023-04-03T14:44:27;102990.41;;;7.80;49.08
20656;BME280;10487;53.320;8.672;2023-04-03T14:47:30;102989.34;;;7.85;49.00
20656;BME280;10487;53.320;8.672;2023-04-03T14:50:33;102985.91;;;7.82;48.82
20656;BME280;10487;53.320;8.672;2023-04-03T14:53:34;102983.41;;;7.76;48.85
20656;BME280;10487;53.320;8.672;2023-04-03T14:56:39;102984.31;;;7.75;48.92
20656;BME280;10487;53.320;8.672;2023-04-03T14:59:42;102986.19;;;7.71;49.01
20656;BME280;10487;53.320;8.672;2023-04-03T15:02:44;102984.59;;;7.64;48.74
20656;BME280;10487;53.320;8.672;2023-04-03T15:05:48;102976.97;;;7.51;48.77
20656;BME280;10487;53.320;8.672;2023-04-03T15:08:50;102977.94;;;7.48;48.77
20656;BME280;10487;53.320;8.672;2023-04-03T15:11:53;102980.69;;;7.45;48.81
20656;BME280;10487;53.320;8.672;2023-04-03T15:14:55;102979.00;;;7.41;48.87
20656;BME280;10487;53.320;8.672;2023-04-03T15:18:04;102973.09;;;7.30;48.87
20656;BME280;10487;53.320;8.672;2023-04-03T15:21:06;102965.16;;;7.28;48.97
20656;BME280;10487;53.320;8.672;2023-04-03T15:24:09;102958.91;;;7.31;48.86
20656;BME280;10487;53.320;8.672;2023-04-03T15:27:12;102951.88;;;7.28;48.63
20656;BME280;10487;53.320;8.672;2023-04-03T15:30:16;102964.44;;;7.22;48.80
20656;BME280;10487;53.320;8.672;2023-04-03T15:33:18;102952.16;;;7.18;48.76
20656;BME280;10487;53.320;8.672;2023-04-03T15:36:20;102947.06;;;7.09;48.80
20656;BME280;10487;53.320;8.672;2023-04-03T15:39:34;102938.38;;;7.02;48.83
20656;BME280;10487;53.320;8.672;2023-04-03T15:42:36;102947.25;;;7.01;48.76
20656;BME280;10487;53.320;8.672;2023-04-03T15:45:38;102947.25;;;7.01;48.71
20656;BME280;10487;53.320;8.672;2023-04-03T15:48:40;102950.84;;;7.00;48.87
20656;BME280;10487;53.320;8.672;2023-04-03T15:51:42;102947.47;;;6.92;48.63
20656;BME280;10487;53.320;8.672;2023-04-03T15:54:44;102947.72;;;6.83;48.66
20656;BME280;10487;53.320;8.672;2023-04-03T15:57:46;102955.03;;;6.72;48.83
20656;BME280;10487;53.320;8.672;2023-04-03T16:00:47;102952.63;;;6.60;48.68
20656;BME280;10487;53.320;8.672;2023-04-03T16:03:49;102943.19;;;6.47;48.70
20656;BME280;10487;53.320;8.672;2023-04-03T16:06:52;102940.69;;;6.39;48.74
20656;BME280;10487;53.320;8.672;2023-04-03T16:09:53;102929.31;;;6.34;48.84
20656;BME280;10487;53.320;8.672;2023-04-03T16:12:55;102933.75;;;6.34;48.74
20656;BME280;10487;53.320;8.672;2023-04-03T16:15:57;102933.72;;;6.35;48.80
20656;BME280;10487;53.320;8.672;2023-04-03T16:18:59;102931.97;;;6.36;48.74
20656;BME280;10487;53.320;8.672;2023-04-03T16:22:01;102928.28;;;6.41;48.72
20656;BME280;10487;53.320;8.672;2023-04-03T16:25:04;102932.69;;;6.42;48.62
20656;BME280;10487;53.320;8.672;2023-04-03T16:28:06;102929.22;;;6.39;48.53
20656;BME280;10487;53.320;8.672;2023-04-03T16:31:08;102930.25;;;6.32;48.54
20656;BME280;10487;53.320;8.672;2023-04-03T16:34:11;102934.88;;;6.22;48.42
20656;BME280;10487;53.320;8.672;2023-04-03T16:37:13;102931.59;;;6.11;48.68
20656;BME280;10487;53.320;8.672;2023-04-03T16:40:16;102928.22;;;6.03;48.67
20656;BME280;10487;53.320;8.672;2023-04-03T16:43:17;102934.47;;;6.00;48.70
20656;BME280;10487;53.320;8.672;2023-04-03T16:46:19;102929.22;;;5.97;48.74
20656;BME280;10487;53.320;8.672;2023-04-03T16:49:21;102931.94;;;5.94;48.64
20656;BME280;10487;53.320;8.672;2023-04-03T16:52:22;102926.63;;;5.94;48.66
20656;BME280;10487;53.320;8.672;2023-04-03T16:55:24;102931.09;;;5.94;48.62
20656;BME280;10487;53.320;8.672;2023-04-03T16:58:26;102938.13;;;5.95;48.67
20656;BME280;10487;53.320;8.672;2023-04-03T17:01:27;102932.63;;;6.04;48.51
20656;BME280;10487;53.320;8.672;2023-04-03T17:04:29;102934.25;;;6.11;48.43
20656;BME280;10487;53.320;8.672;2023-04-03T17:07:31;102936.03;;;6.09;48.41
20656;BME280;10487;53.320;8.672;2023-04-03T17:10:32;102940.66;;;6.01;48.34
20656;BME280;10487;53.320;8.672;2023-04-03T17:13:36;102930.22;;;5.92;48.35
20656;BME280;10487;53.320;8.672;2023-04-03T17:16:38;102932.97;;;5.87;48.43
20656;BME280;10487;53.320;8.672;2023-04-03T17:19:41;102930.41;;;5.83;48.50
20656;BME280;10487;53.320;8.672;2023-04-03T17:22:44;102938.44;;;5.78;48.57
20656;BME280;10487;53.320;8.672;2023-04-03T17:25:46;102936.78;;;5.73;48.59
20656;BME280;10487;53.320;8.672;2023-04-03T17:28:47;102943.16;;;5.64;48.57
20656;BME280;10487;53.320;8.672;2023-04-03T17:31:49;102945.06;;;5.56;48.47
20656;BME280;10487;53.320;8.672;2023-04-03T17:34:51;102944.28;;;5.50;48.58
20656;BME280;10487;53.320;8.672;2023-04-03T17:37:53;102941.75;;;5.42;48.60
20656;BME280;10487;53.320;8.672;2023-04-03T17:40:59;102941.94;;;5.33;48.51
20656;BME280;10487;53.320;8.672;2023-04-03T17:44:01;102945.63;;;5.24;48.82